createdAt,value
2022-07-30T00:00:55.507Z,98.57
2022-07-30T00:02:56.704Z,98.58
2022-07-30T00:04:57.698Z,98.6
2022-07-30T00:06:59.042Z,98.6
2022-07-30T00:09:00.104Z,98.6
2022-07-30T00:11:01.672Z,98.59
2022-07-30T00:13:02.648Z,98.62
2022-07-30T00:15:03.534Z,98.63
2022-07-30T00:17:04.990Z,98.62
2022-07-30T00:19:06.353Z,98.65
2022-07-30T00:21:07.060Z,98.62
2022-07-30T00:23:08.470Z,98.66
2022-07-30T00:25:09.661Z,98.67
2022-07-30T00:27:10.938Z,98.66
2022-07-30T00:29:12.672Z,98.62
2022-07-30T00:33:15.227Z,98.64
2022-07-30T00:35:16.464Z,98.66
2022-07-30T00:37:17.898Z,98.7
2022-07-30T00:39:19.735Z,98.72
2022-07-30T00:43:23.120Z,98.7
2022-07-30T00:45:24.119Z,98.69
2022-07-30T00:47:25.997Z,98.69
2022-07-30T00:49:27.332Z,98.68
2022-07-30T00:51:28.100Z,98.7
2022-07-30T00:53:29.556Z,98.75
2022-07-30T00:55:30.880Z,98.76
2022-07-30T00:57:31.966Z,98.72
2022-07-30T00:59:32.830Z,98.69
2022-07-30T01:01:34.826Z,98.7
2022-07-30T01:03:35.805Z,98.56
2022-07-30T01:05:37.421Z,98.6
2022-07-30T01:07:38.685Z,98.69
2022-07-30T01:09:40.019Z,98.75
2022-07-30T01:15:44.469Z,98.84
2022-07-30T01:17:45.833Z,98.88
2022-07-30T01:19:47.760Z,98.87
2022-07-30T01:21:49.340Z,98.89
2022-07-30T01:24:34.903Z,98.9
2022-07-30T01:26:36.269Z,98.86
2022-07-30T01:28:37.300Z,98.84
2022-07-30T01:30:38.483Z,98.84
2022-07-30T01:32:39.657Z,98.85
2022-07-30T01:36:41.774Z,98.87
2022-07-30T01:38:43.402Z,98.9
2022-07-30T01:40:44.927Z,98.9
2022-07-30T01:42:46.119Z,98.9
2022-07-30T01:44:47.479Z,98.92
2022-07-30T01:46:48.994Z,98.91
2022-07-30T01:48:50.428Z,98.9
2022-07-30T01:52:53.133Z,98.89
2022-07-30T01:54:54.429Z,98.9
2022-07-30T01:56:56.068Z,98.87
2022-07-30T01:58:57.682Z,98.84
2022-07-30T02:03:00.567Z,98.86
2022-07-30T02:05:02.465Z,98.89
2022-07-30T02:07:04.141Z,98.86
2022-07-30T02:09:10.584Z,98.84
2022-07-30T02:11:06.453Z,98.84
2022-07-30T02:13:08.266Z,98.83
2022-07-30T02:15:09.604Z,98.85
2022-07-30T02:17:18.764Z,98.87
2022-07-30T02:19:13.202Z,98.87
2022-07-30T02:21:14.147Z,98.87
2022-07-30T02:23:15.711Z,98.93
2022-07-30T02:25:16.605Z,98.96
2022-07-30T02:27:17.562Z,99.01
2022-07-30T02:29:18.621Z,99.01
2022-07-30T02:31:20.196Z,98.98
2022-07-30T02:33:22.008Z,98.97
2022-07-30T02:35:23.647Z,98.97
2022-07-30T02:37:41.084Z,98.93
2022-07-30T02:39:25.981Z,98.87
2022-07-30T02:41:26.951Z,98.89
2022-07-30T02:43:28.151Z,98.91
2022-07-30T02:45:29.626Z,98.9
2022-07-30T02:47:30.942Z,98.9
2022-07-30T02:49:32.429Z,98.91
2022-07-30T02:51:33.703Z,98.93
2022-07-30T02:53:35.044Z,98.93
2022-07-30T02:55:35.984Z,98.94
2022-07-30T02:57:37.599Z,98.93
2022-07-30T03:01:40.116Z,98.92
2022-07-30T03:03:41.127Z,98.93
2022-07-30T03:05:42.814Z,98.93
2022-07-30T03:07:44.298Z,98.92
2022-07-30T03:09:51.203Z,98.95
2022-07-30T03:11:47.097Z,98.95
2022-07-30T03:13:48.954Z,98.92
2022-07-30T03:15:50.779Z,98.93
2022-07-30T03:17:52.445Z,98.94
2022-07-30T03:19:54.180Z,98.92
2022-07-30T03:21:55.747Z,98.95
2022-07-30T03:23:57.410Z,98.96
2022-07-30T03:25:58.924Z,98.95
2022-07-30T03:28:00.570Z,98.95
2022-07-30T03:30:01.457Z,98.96
2022-07-30T03:32:03.116Z,98.95
2022-07-30T03:34:04.669Z,98.96
2022-07-30T03:36:05.649Z,98.94
2022-07-30T03:38:07.165Z,98.95
2022-07-30T03:40:08.694Z,98.97
2022-07-30T03:44:10.993Z,98.98
2022-07-30T03:46:12.850Z,98.97
2022-07-30T03:48:13.905Z,98.99
2022-07-30T03:50:14.891Z,98.97
2022-07-30T03:52:16.670Z,98.98
2022-07-30T03:54:18.511Z,98.98
2022-07-30T03:56:20.321Z,99
2022-07-30T03:58:21.876Z,98.97
2022-07-30T04:00:22.906Z,98.99
2022-07-30T04:02:24.414Z,99
2022-07-30T04:04:25.677Z,98.98
2022-07-30T04:06:27.161Z,99
2022-07-30T04:08:28.110Z,98.99
2022-07-30T04:10:29.927Z,98.99
2022-07-30T04:12:31.614Z,99.02
2022-07-30T04:14:33.384Z,99.01
2022-07-30T04:16:40.730Z,99.02
2022-07-30T04:18:36.565Z,99.03
2022-07-30T04:22:39.069Z,99.06
2022-07-30T04:26:42.090Z,99.03
2022-07-30T04:28:43.086Z,99.03
2022-07-30T04:30:44.606Z,99.04
2022-07-30T04:32:45.748Z,99.02
2022-07-30T04:34:47.340Z,99.03
2022-07-30T04:36:48.671Z,99.02
2022-07-30T04:38:49.802Z,99.04
2022-07-30T04:40:51.154Z,99.03
2022-07-30T04:42:52.734Z,99.03
2022-07-30T04:44:54.236Z,99.04
2022-07-30T04:46:55.894Z,99.03
2022-07-30T04:48:57.514Z,99.01
2022-07-30T04:50:58.785Z,99.04
2022-07-30T04:53:00.660Z,99.02
2022-07-30T04:55:01.879Z,99.08
2022-07-30T04:57:03.922Z,99.06
2022-07-30T04:59:05.144Z,99.03
2022-07-30T05:01:06.189Z,99.03
2022-07-30T05:03:07.650Z,99.02
2022-07-30T05:05:08.887Z,99
2022-07-30T05:07:09.957Z,98.97
2022-07-30T05:09:10.984Z,99
2022-07-30T05:11:12.504Z,99.01
2022-07-30T05:13:13.854Z,99
2022-07-30T05:15:15.529Z,99.07
2022-07-30T05:17:16.954Z,99.03
2022-07-30T05:19:18.812Z,99.02
2022-07-30T05:21:20.473Z,99
2022-07-30T05:25:23.495Z,99
2022-07-30T05:27:25.309Z,99.01
2022-07-30T05:29:26.880Z,99.01
2022-07-30T05:31:29.334Z,98.99
2022-07-30T05:33:40.784Z,99.02
2022-07-30T05:35:31.053Z,98.98
2022-07-30T05:37:32.152Z,99.06
2022-07-30T05:39:34.042Z,99.04
2022-07-30T05:41:35.695Z,99.07
2022-07-30T05:43:36.772Z,98.97
2022-07-30T05:45:38.272Z,99
2022-07-30T05:47:40.191Z,99.04
2022-07-30T05:49:41.679Z,98.92
2022-07-30T05:51:51.652Z,98.79
2022-07-30T05:53:43.988Z,98.81
2022-07-30T05:55:45.041Z,98.99
2022-07-30T05:57:45.975Z,98.87
2022-07-30T05:59:46.958Z,97.96
2022-07-30T06:01:48.812Z,97.15
2022-07-30T06:03:50.409Z,95.23
2022-07-30T06:07:52.277Z,95.9
2022-07-30T06:09:53.616Z,95.32
2022-07-30T06:11:55.044Z,96.08
2022-07-30T06:13:56.090Z,95.65
2022-07-30T06:15:57.913Z,95.17
2022-07-30T06:18:01.661Z,95.32
2022-07-30T06:20:00.671Z,94.86
2022-07-30T06:22:06.449Z,94.85
2022-07-30T06:24:03.803Z,94.94
2022-07-30T06:26:04.802Z,94.93
2022-07-30T06:28:21.222Z,94.49
2022-07-30T06:30:07.209Z,92.8
2022-07-30T06:32:08.613Z,88.74
2022-07-30T06:34:09.373Z,90.92
2022-07-30T06:36:13.740Z,87.44
2022-07-30T06:38:11.517Z,87.69
2022-07-30T06:40:13.213Z,86.16
2022-07-30T06:42:14.757Z,87.03
2022-07-30T06:44:16.412Z,86.74
2022-07-30T06:46:18.154Z,87.62
2022-07-30T06:50:19.947Z,86.11
2022-07-30T06:52:21.571Z,88.96
2022-07-30T06:54:22.657Z,88.26
2022-07-30T06:56:24.074Z,86.13
2022-07-30T06:58:25.912Z,83.72
2022-07-30T07:00:27.460Z,85.91
2022-07-30T07:02:28.354Z,85.83
2022-07-30T07:04:29.623Z,84.89
2022-07-30T07:06:30.701Z,86.05
2022-07-30T07:08:32.110Z,86.72
2022-07-30T07:10:33.619Z,85.93
2022-07-30T07:12:34.755Z,86.01
2022-07-30T07:14:35.941Z,86.72
2022-07-30T07:16:37.470Z,87.82
2022-07-30T07:18:39.031Z,86.81
2022-07-30T07:20:40.572Z,86.01
2022-07-30T07:22:41.369Z,84.66
2022-07-30T07:24:42.295Z,83.23
2022-07-30T07:26:44.830Z,83.55
2022-07-30T07:28:46.155Z,81.25
2022-07-30T07:30:47.874Z,80.97
2022-07-30T07:32:49.213Z,82.99
2022-07-30T07:34:50.602Z,83.28
2022-07-30T07:36:52.328Z,82.75
2022-07-30T07:38:53.301Z,81.6
2022-07-30T07:40:54.375Z,81.98
2022-07-30T07:42:55.920Z,81.75
2022-07-30T07:44:57.548Z,80.46
2022-07-30T07:49:00.564Z,82.31
2022-07-30T07:51:01.739Z,81.54
2022-07-30T07:53:03.102Z,81.57
2022-07-30T07:55:04.321Z,80.59
2022-07-30T07:57:05.653Z,82.21
2022-07-30T07:59:06.945Z,81.77
2022-07-30T08:01:08.485Z,81.11
2022-07-30T08:03:09.645Z,81.68
2022-07-30T08:05:11.344Z,79.19
2022-07-30T08:07:12.397Z,79.95
2022-07-30T08:09:13.484Z,77.8
2022-07-30T08:11:14.805Z,77.2
2022-07-30T08:13:59.599Z,77.14
2022-07-30T08:16:01.079Z,78.32
2022-07-30T08:18:02.072Z,75.04
2022-07-30T08:20:03.573Z,74.07
2022-07-30T08:22:04.705Z,73.52
2022-07-30T08:26:07.170Z,74.34
2022-07-30T08:28:08.845Z,72.5
2022-07-30T08:30:10.493Z,72.65
2022-07-30T08:32:12.096Z,73.28
2022-07-30T08:34:13.825Z,74.08
2022-07-30T08:36:14.874Z,73.97
2022-07-30T08:38:16.272Z,72.8
2022-07-30T08:40:17.496Z,73.92
2022-07-30T08:42:18.564Z,71.02
2022-07-30T08:44:19.642Z,69.52
2022-07-30T08:46:20.424Z,69.26
2022-07-30T08:48:21.914Z,69.54
2022-07-30T08:50:22.805Z,71.25
2022-07-30T08:52:23.609Z,66.45
2022-07-30T08:54:24.740Z,64.93
2022-07-30T08:56:25.660Z,66.29
2022-07-30T08:58:26.565Z,64.78
2022-07-30T09:00:27.435Z,65.39
2022-07-30T09:02:29.223Z,66.82
2022-07-30T09:04:29.729Z,66.23
2022-07-30T09:06:30.819Z,64.37
2022-07-30T09:08:32.013Z,64.92
2022-07-30T09:10:33.153Z,64.45
2022-07-30T09:12:34.743Z,59.86
2022-07-30T09:14:35.953Z,63.21
2022-07-30T09:16:37.218Z,60.56
2022-07-30T09:18:38.984Z,59.34
2022-07-30T09:20:39.915Z,58.61
2022-07-30T09:22:41.733Z,60.49
2022-07-30T09:24:43.349Z,58.22
2022-07-30T09:26:44.503Z,56.76
2022-07-30T09:28:45.444Z,55.2
2022-07-30T09:30:46.248Z,55.84
2022-07-30T09:32:47.636Z,57.16
2022-07-30T09:34:48.668Z,57.23
2022-07-30T09:36:50.218Z,54.16
2022-07-30T09:38:51.716Z,55.09
2022-07-30T09:40:53.178Z,55
2022-07-30T09:42:53.830Z,52.74
2022-07-30T09:44:55.521Z,54.23
2022-07-30T09:46:56.586Z,54.04
2022-07-30T09:48:58.188Z,54.3
2022-07-30T09:50:59.533Z,52.15
2022-07-30T09:53:01.146Z,50.78
2022-07-30T09:57:03.226Z,47.96
2022-07-30T09:59:04.955Z,46.3
2022-07-30T10:01:06.452Z,49.84
2022-07-30T10:05:08.693Z,46.8
2022-07-30T10:07:09.528Z,46.44
2022-07-30T10:09:13.738Z,46.29
2022-07-30T10:11:11.294Z,44.83
2022-07-30T10:13:13.553Z,44.12
2022-07-30T10:15:13.755Z,44.4
2022-07-30T10:17:14.665Z,42.05
2022-07-30T10:19:18.138Z,42.46
2022-07-30T10:23:21.444Z,39.76
2022-07-30T10:25:20.788Z,42.15
2022-07-30T10:27:21.597Z,40.47
2022-07-30T10:29:22.768Z,42.88
2022-07-30T10:31:46.599Z,42.83
2022-07-30T10:33:35.355Z,43.03
2022-07-30T10:35:31.366Z,41.6
2022-07-30T10:37:27.442Z,40.73
2022-07-30T10:39:28.771Z,39.84
2022-07-30T10:41:43.421Z,41.27
2022-07-30T10:43:32.178Z,41.84
2022-07-30T10:45:33.538Z,41.92
2022-07-30T10:49:40.861Z,43.64
2022-07-30T10:51:36.861Z,42.68
2022-07-30T10:53:37.764Z,42.05
2022-07-30T10:55:39.486Z,41.25
2022-07-30T10:57:41.413Z,42.14
2022-07-30T10:59:41.735Z,43.66
2022-07-30T11:01:42.976Z,41.86
2022-07-30T11:03:44.980Z,40
2022-07-30T11:05:45.954Z,41.91
2022-07-30T11:07:47.176Z,43.48
2022-07-30T11:09:49.850Z,42.09
2022-07-30T11:11:59.797Z,42.6
2022-07-30T11:13:49.875Z,43.31
2022-07-30T11:15:51.278Z,44.35
2022-07-30T11:17:52.094Z,41.86
2022-07-30T11:19:57.834Z,41.95
2022-07-30T11:21:54.606Z,40.64
2022-07-30T11:23:56.776Z,41.03
2022-07-30T11:25:57.229Z,41.81
2022-07-30T11:27:58.375Z,41.33
2022-07-30T11:30:00.152Z,41.54
2022-07-30T11:32:05.277Z,42.9
2022-07-30T11:34:03.002Z,42.96
2022-07-30T11:38:06.325Z,43.18
2022-07-30T11:40:07.892Z,45.19
2022-07-30T11:42:09.679Z,43.97
2022-07-30T11:44:11.230Z,45.2
2022-07-30T11:48:13.790Z,41.89
2022-07-30T11:50:15.406Z,42.52
2022-07-30T11:52:16.682Z,43.35
2022-07-30T11:54:17.748Z,41.9
2022-07-30T11:56:19.243Z,41.95
2022-07-30T11:58:20.879Z,42.46
2022-07-30T12:00:21.930Z,42.06
2022-07-30T12:02:23.457Z,41.3
2022-07-30T12:04:24.240Z,42.59
2022-07-30T12:06:25.504Z,42.29
2022-07-30T12:08:31.407Z,40.6
2022-07-30T12:10:27.965Z,42.2
2022-07-30T12:12:29.306Z,40.55
2022-07-30T12:14:30.946Z,39.63
2022-07-30T12:16:32.248Z,39.08
2022-07-30T12:18:33.253Z,39.53
2022-07-30T12:20:34.690Z,40.62
2022-07-30T12:22:35.971Z,41.94
2022-07-30T12:26:38.757Z,38.82
2022-07-30T12:28:39.788Z,40.87
2022-07-30T12:30:41.464Z,38.2
2022-07-30T12:32:42.781Z,41.03
2022-07-30T12:36:45.648Z,40.88
2022-07-30T12:38:47.083Z,40.32
2022-07-30T12:40:47.834Z,37.9
2022-07-30T12:42:48.812Z,37.82
2022-07-30T12:46:52.074Z,38.39
2022-07-30T12:48:53.638Z,37.92
2022-07-30T12:50:55.027Z,38.5
2022-07-30T12:52:55.840Z,39.56
2022-07-30T12:54:56.829Z,37.94
2022-07-30T12:56:57.927Z,37.13
2022-07-30T12:58:59.147Z,37.22
2022-07-30T13:01:00.320Z,35.56
2022-07-30T13:03:01.219Z,37.16
2022-07-30T13:05:11.200Z,36.44
2022-07-30T13:07:03.210Z,37.23
2022-07-30T13:09:03.947Z,37.46
2022-07-30T13:11:05.051Z,38.64
2022-07-30T13:13:05.930Z,37.37
2022-07-30T13:15:07.296Z,36.49
2022-07-30T13:19:10.152Z,36.14
2022-07-30T13:21:11.489Z,35.58
2022-07-30T13:23:13.188Z,35.81
2022-07-30T13:25:14.457Z,34.53
2022-07-30T13:29:16.679Z,33.4
2022-07-30T13:31:17.532Z,34.75
2022-07-30T13:33:18.803Z,35.5
2022-07-30T13:35:19.880Z,35.3
2022-07-30T13:37:21.165Z,36.32
2022-07-30T13:39:22.584Z,36.51
2022-07-30T13:41:23.805Z,34.48
2022-07-30T13:45:26.135Z,34.58
2022-07-30T13:47:26.858Z,34.08
2022-07-30T13:49:28.035Z,34.7
2022-07-30T13:51:29.747Z,35.38
2022-07-30T13:53:30.937Z,36
2022-07-30T13:55:31.747Z,35.21
2022-07-30T13:57:32.984Z,34.62
2022-07-30T13:59:34.575Z,34.85
2022-07-30T14:01:36.264Z,34.71
2022-07-30T14:03:37.958Z,34.33
2022-07-30T14:05:41.969Z,33.74
2022-07-30T14:07:40.480Z,34.32
2022-07-30T14:09:44.584Z,33.85
2022-07-30T14:11:43.282Z,34.47
2022-07-30T14:13:44.720Z,35.15
2022-07-30T14:15:46.235Z,34.23
2022-07-30T14:17:55.950Z,33.42
2022-07-30T14:19:48.546Z,34
2022-07-30T14:21:49.561Z,33.73
2022-07-30T14:23:50.317Z,35
2022-07-30T14:27:53.498Z,34.96
2022-07-30T14:29:55.012Z,34.49
2022-07-30T14:31:56.257Z,34.42
2022-07-30T14:33:57.432Z,34.22
2022-07-30T14:35:58.340Z,33.83
2022-07-30T14:37:59.995Z,33.39
2022-07-30T14:40:00.925Z,33.45
2022-07-30T14:44:03.324Z,34.16
2022-07-30T14:46:04.676Z,35.08
2022-07-30T14:48:05.540Z,34.61
2022-07-30T14:50:06.912Z,34.37
2022-07-30T14:52:08.320Z,33.84
2022-07-30T14:54:09.730Z,33.19
2022-07-30T14:56:10.639Z,34.25
2022-07-30T14:56:58.130Z,35.01
2022-07-30T14:58:55.676Z,34.93
2022-07-30T15:00:57.278Z,35.95
2022-07-30T15:02:58.548Z,33.68
2022-07-30T15:05:00.288Z,33.97
2022-07-30T15:07:01.981Z,33.33
2022-07-30T15:11:06.194Z,34.45
2022-07-30T15:13:06.878Z,34.8
2022-07-30T15:15:08.470Z,35.02
2022-07-30T15:17:10.152Z,34.73
2022-07-30T15:21:12.349Z,35.49
2022-07-30T15:23:13.558Z,34.93
2022-07-30T15:25:14.957Z,33.76
2022-07-30T15:27:16.680Z,33.51
2022-07-30T15:29:17.538Z,34.05
2022-07-30T15:31:18.319Z,34.15
2022-07-30T15:33:19.720Z,32.83
2022-07-30T15:35:21.423Z,34
2022-07-30T15:37:22.805Z,34.01
2022-07-30T15:39:23.568Z,33.12
2022-07-30T15:41:24.577Z,34.27
2022-07-30T15:43:25.466Z,33.66
2022-07-30T15:45:26.738Z,34.01
2022-07-30T15:47:27.841Z,33.69
2022-07-30T15:49:29.365Z,33.74
2022-07-30T15:51:30.791Z,34.65
2022-07-30T15:53:31.633Z,34.48
2022-07-30T15:55:46.830Z,34.45
2022-07-30T15:57:34.215Z,32.87
2022-07-30T15:59:35.591Z,32.88
2022-07-30T16:03:38.510Z,32.71
2022-07-30T16:05:51.207Z,33.21
2022-07-30T16:07:41.282Z,32.33
2022-07-30T16:09:42.791Z,32.45
2022-07-30T16:11:44.139Z,32.1
2022-07-30T16:13:45.078Z,31.71
2022-07-30T16:15:46.597Z,32.12
2022-07-30T16:17:47.754Z,31.71
2022-07-30T16:19:48.685Z,31.9
2022-07-30T16:21:49.745Z,31.51
2022-07-30T16:23:50.738Z,31.4
2022-07-30T16:25:52.141Z,30.23
2022-07-30T16:27:53.245Z,30.8
2022-07-30T16:29:54.056Z,31.72
2022-07-30T16:31:55.074Z,30.64
2022-07-30T16:33:56.082Z,31.03
2022-07-30T16:35:57.801Z,31.13
2022-07-30T16:37:59.057Z,30.29
2022-07-30T16:40:00.416Z,31.16
2022-07-30T16:42:02.247Z,31.12
2022-07-30T16:44:03.403Z,31.06
2022-07-30T16:46:04.717Z,31.57
2022-07-30T16:48:06.205Z,31.53
2022-07-30T16:50:07.914Z,30.82
2022-07-30T16:52:09.642Z,30.72
2022-07-30T16:54:11.039Z,30.49
2022-07-30T16:56:12.441Z,31.02
2022-07-30T16:58:13.393Z,31.13
2022-07-30T17:00:14.866Z,31.76
2022-07-30T17:02:16.366Z,31.9
2022-07-30T17:04:17.944Z,31.44
2022-07-30T17:06:19.609Z,32.1
2022-07-30T17:08:24.519Z,31.55
2022-07-30T17:10:22.960Z,31.59
2022-07-30T17:12:23.974Z,32.56
2022-07-30T17:14:24.805Z,32.59
2022-07-30T17:16:25.722Z,32.86
2022-07-30T17:18:26.729Z,33.42
2022-07-30T17:20:28.301Z,32.54
2022-07-30T17:22:29.120Z,33.36
2022-07-30T17:24:30.884Z,33.49
2022-07-30T17:26:32.507Z,33.41
2022-07-30T17:28:33.977Z,33.64
2022-07-30T17:30:35.160Z,34.24
2022-07-30T17:32:36.797Z,34.22
2022-07-30T17:34:38.426Z,34.46
2022-07-30T17:36:39.802Z,34.85
2022-07-30T17:38:40.906Z,34.86
2022-07-30T17:40:42.008Z,35.62
2022-07-30T17:44:44.357Z,34.93
2022-07-30T17:46:45.886Z,35.28
2022-07-30T17:48:47.092Z,35.62
2022-07-30T17:50:48.833Z,35.52
2022-07-30T17:52:49.726Z,37.33
2022-07-30T17:54:51.357Z,35.76
2022-07-30T17:56:52.622Z,36.13
2022-07-30T17:58:53.786Z,36.29
2022-07-30T18:00:55.386Z,36.45
2022-07-30T18:02:56.612Z,36.78
2022-07-30T18:04:57.819Z,35.94
2022-07-30T18:06:59.020Z,36.42
2022-07-30T18:09:00.790Z,36.46
2022-07-30T18:11:02.417Z,36.96
2022-07-30T18:15:05.200Z,37.28
2022-07-30T18:17:08.182Z,37.06
2022-07-30T18:19:08.202Z,38.07
2022-07-30T18:21:09.359Z,38.19
2022-07-30T18:23:14.274Z,39.89
2022-07-30T18:25:17.943Z,40.08
2022-07-30T18:27:13.064Z,43.97
2022-07-30T18:29:14.161Z,49.35
2022-07-30T18:31:15.377Z,52.19
2022-07-30T18:33:17.194Z,54.12
2022-07-30T18:35:18.523Z,54.7
2022-07-30T18:37:20.020Z,55.79
2022-07-30T18:39:20.910Z,57.26
2022-07-30T18:41:22.118Z,57.85
2022-07-30T18:43:23.591Z,58.17
2022-07-30T18:45:25.176Z,58.23
2022-07-30T18:47:26.132Z,58.28
2022-07-30T18:49:36.452Z,58.71
2022-07-30T18:51:28.321Z,59.43
2022-07-30T18:53:30.101Z,59.82
2022-07-30T18:57:32.883Z,59.99
2022-07-30T18:59:34.526Z,60.11
2022-07-30T19:01:36.411Z,60.53
2022-07-30T19:03:37.441Z,60.04
2022-07-30T19:05:38.535Z,60.33
2022-07-30T19:07:48.102Z,60.58
2022-07-30T19:09:41.467Z,61.22
2022-07-30T19:11:43.060Z,61.21
2022-07-30T19:13:44.629Z,61.33
2022-07-30T19:15:45.918Z,61.55
2022-07-30T19:17:47.653Z,61.73
2022-07-30T19:19:48.859Z,61.63
2022-07-30T19:21:50.209Z,62.16
2022-07-30T19:23:51.414Z,63.4
2022-07-30T19:25:52.972Z,64.14
2022-07-30T19:29:55.739Z,64.67
2022-07-30T19:31:57.495Z,65.46
2022-07-30T19:33:58.568Z,66.19
2022-07-30T19:35:59.738Z,67.33
2022-07-30T19:40:05.894Z,67.61
2022-07-30T19:42:03.010Z,67.96
2022-07-30T19:44:04.442Z,68.08
2022-07-30T19:46:05.801Z,68.58
2022-07-30T19:48:07.389Z,69.03
2022-07-30T19:50:08.942Z,69.17
2022-07-30T19:52:17.778Z,69.32
2022-07-30T19:56:12.634Z,71.72
2022-07-30T19:58:15.997Z,73.64
2022-07-30T20:00:15.101Z,75.5
2022-07-30T20:02:16.611Z,76.67
2022-07-30T20:04:17.765Z,76.77
2022-07-30T20:06:18.972Z,75.54
2022-07-30T20:08:24.725Z,74.48
2022-07-30T20:10:21.430Z,74.4
2022-07-30T20:12:24.197Z,74.58
2022-07-30T20:14:23.911Z,74.89
2022-07-30T20:16:25.487Z,75.59
2022-07-30T20:20:28.145Z,76.16
2022-07-30T20:22:29.461Z,76.39
2022-07-30T20:24:30.991Z,76.27
2022-07-30T20:28:33.831Z,76.73
2022-07-30T20:30:35.401Z,76.8
2022-07-30T20:32:36.476Z,77.02
2022-07-30T20:34:37.970Z,77.63
2022-07-30T20:38:40.258Z,79.31
2022-07-30T20:40:41.786Z,79.75
2022-07-30T20:42:42.984Z,80.44
2022-07-30T20:44:44.277Z,81.13
2022-07-30T20:46:45.453Z,81.74
2022-07-30T20:48:47.332Z,81.92
2022-07-30T20:50:49.191Z,81.55
2022-07-30T20:52:50.362Z,81.26
2022-07-30T20:54:52.015Z,81.32
2022-07-30T20:56:53.709Z,81.14
2022-07-30T20:58:55.194Z,81.01
2022-07-30T21:00:56.309Z,81.44
2022-07-30T21:02:57.513Z,81.36
2022-07-30T21:04:59.865Z,81.35
2022-07-30T21:07:00.595Z,81.76
2022-07-30T21:09:01.607Z,81.8
2022-07-30T21:11:03.260Z,81.15
2022-07-30T21:13:07.548Z,81.21
2022-07-30T21:15:11.795Z,81.32
2022-07-30T21:17:07.243Z,80.52
2022-07-30T21:21:10.098Z,80.48
2022-07-30T21:23:11.674Z,80.35
2022-07-30T21:25:13.453Z,80.92
2022-07-30T21:27:14.904Z,81.62
2022-07-30T21:29:16.067Z,81.84
2022-07-30T21:31:17.238Z,81.96
2022-07-30T21:33:18.122Z,81.63
2022-07-30T21:35:19.913Z,81.54
2022-07-30T21:37:21.075Z,81.41
2022-07-30T21:39:28.699Z,82.06
2022-07-30T21:41:37.627Z,82.34
2022-07-30T21:42:08.082Z,82.8
2022-07-30T21:44:09.769Z,83.53
2022-07-30T21:48:12.637Z,84.17
2022-07-30T21:50:13.796Z,84.02
2022-07-30T21:52:15.459Z,84.15
2022-07-30T21:54:19.264Z,84.18
2022-07-30T21:58:23.973Z,85.09
2022-07-30T22:00:20.995Z,85.42
2022-07-30T22:02:22.782Z,85.71
2022-07-30T22:04:23.883Z,85.8
2022-07-30T22:06:25.250Z,85.5
2022-07-30T22:08:26.283Z,85.19
2022-07-30T22:10:27.215Z,85.31
2022-07-30T22:12:28.970Z,85.46
2022-07-30T22:14:29.565Z,85.34
2022-07-30T22:16:31.358Z,85.39
2022-07-30T22:18:32.384Z,85.75
2022-07-30T22:20:33.544Z,86.14
2022-07-30T22:22:36.250Z,86.09
2022-07-30T22:24:36.968Z,85.9
2022-07-30T22:28:39.921Z,86.96
2022-07-30T22:32:43.147Z,86.62
2022-07-30T22:36:45.491Z,87.15
2022-07-30T22:38:46.637Z,87.27
2022-07-30T22:40:48.240Z,87.43
2022-07-30T22:42:49.951Z,88.28
2022-07-30T22:46:56.077Z,87.67
2022-07-30T22:48:52.763Z,87.73
2022-07-30T22:50:54.520Z,87.14
2022-07-30T22:52:56.233Z,87.18
2022-07-30T22:57:03.839Z,88.68
2022-07-30T22:59:00.942Z,88.73
2022-07-30T23:01:02.152Z,87.02
2022-07-30T23:03:04.057Z,86.81
2022-07-30T23:05:05.552Z,86.48
2022-07-30T23:07:06.709Z,87.16
2022-07-30T23:09:08.038Z,88.16
2022-07-30T23:11:08.966Z,88.2
2022-07-30T23:12:16.636Z,75.84
2022-07-30T23:13:10.691Z,88.08
2022-07-30T23:15:12.362Z,87.99
2022-07-30T23:17:13.446Z,88.05
2022-07-30T23:19:20.035Z,88.14
2022-07-30T23:21:16.081Z,88.19
2022-07-30T23:23:17.658Z,88.16
2022-07-30T23:25:18.746Z,88.82
2022-07-30T23:27:19.706Z,89.55
2022-07-30T23:29:21.213Z,90.01
2022-07-30T23:31:26.501Z,90.61
2022-07-30T23:33:23.493Z,90.75
2022-07-30T23:35:25.087Z,90.63
2022-07-30T23:39:27.536Z,90.42
2022-07-30T23:41:29.927Z,91.17
2022-07-30T23:43:30.969Z,90.35
2022-07-30T23:45:32.375Z,90.16
2022-07-30T23:47:49.653Z,90.05
2022-07-30T23:49:34.778Z,88.85
2022-07-30T23:51:36.177Z,88.59
2022-07-30T23:53:37.585Z,88.43
2022-07-30T23:55:39.110Z,88.91
2022-07-30T23:57:40.317Z,89.36
2022-07-30T23:59:42.023Z,89.44
